Gina Lea — WDJ6038 — position and weather

sailwx.info

Track history (hours):
 
Tides and Currents Weather Stations Pressure Air Temp Water Temp Dewpoint Dewpoint Depression Visibility Wind Speed Wind Dir Waves Ship Positions

Gina Lea

Owner: Buchman, Adam, Marlborough, NJ. More information available from US FCC via Universal Licensing System and Coast Guard Vessel Documentation Center.

Last reported at 2018-Feb-17 20:28 UTC. Time now 2018-Jun-18 19:21 UTC.
Position N 26°07' W 080°04'.
Warning: this ship's position is months out of date.

Type: Pleasure craft. MMSI: 367793740.

Date/timePositionNaut miles runAvg speedWind from/ knotsBaromVisibWave heightAir tempDewpointWater temp
2018-Feb-17 20:28N 26°07' W 080°04'1328.8
2018-Feb-17 20:00N 25°54' W 080°03'611.7
2018-Feb-17 19:29N 25°48' W 080°03'5 9.8
2018-Feb-17 19:00N 25°46' W 080°08'712.8
2018-Feb-17 18:29N 25°52' W 080°04'3 6.0
2018-Feb-17 18:00N 25°55' W 080°05'2 4.1
2018-Feb-17 17:30N 25°53' W 080°03'2 4.5
2018-Feb-17 16:58N 25°51' W 080°03'3 6.3
2018-Feb-17 16:29N 25°48' W 080°03'1 1.1
2018-Feb-17 15:59N 25°47' W 080°03'0 0.8
2018-Feb-17 15:23N 25°47' W 080°03'0 1.1
2018-Feb-17 15:00N 25°46' W 080°03'4 7.2
2018-Feb-17 14:26N 25°42' W 080°02'1 2.6
2018-Feb-17 14:00N 25°42' W 080°03'713.3
2018-Feb-17 13:30N 25°46' W 080°08'0 0.0
2018-Feb-17 13:00N 25°46' W 080°08'3 5.3
2018-Feb-17 12:29N 25°47' W 080°05'1225.5
2018-Feb-17 12:00N 25°59' W 080°04'  
Track history (hours):
 
Tides and Currents Weather Stations Pressure Air Temp Water Temp Dewpoint Dewpoint Depression Visibility Wind Speed Wind Dir Waves Ship Positions

Gina Lea

Owner: Buchman, Adam, Marlborough, NJ. More information available from US FCC via Universal Licensing System and Coast Guard Vessel Documentation Center.

Last reported at 2018-Feb-17 20:28 UTC. Time now 2018-Jun-18 19:21 UTC.
Position N 26°07' W 080°04'.
Warning: this ship's position is months out of date.

Type: Pleasure craft. MMSI: 367793740.

Date/timePositionNaut miles runAvg speedWind from/ knotsBaromVisibWave heightAir tempDewpointWater temp
2018-Feb-17 20:28N 26°07' W 080°04'1328.8
2018-Feb-17 20:00N 25°54' W 080°03'611.7
2018-Feb-17 19:29N 25°48' W 080°03'5 9.8
2018-Feb-17 19:00N 25°46' W 080°08'712.8
2018-Feb-17 18:29N 25°52' W 080°04'3 6.0
2018-Feb-17 18:00N 25°55' W 080°05'2 4.1
2018-Feb-17 17:30N 25°53' W 080°03'2 4.5
2018-Feb-17 16:58N 25°51' W 080°03'3 6.3
2018-Feb-17 16:29N 25°48' W 080°03'1 1.1
2018-Feb-17 15:59N 25°47' W 080°03'0 0.8
2018-Feb-17 15:23N 25°47' W 080°03'0 1.1
2018-Feb-17 15:00N 25°46' W 080°03'4 7.2
2018-Feb-17 14:26N 25°42' W 080°02'1 2.6
2018-Feb-17 14:00N 25°42' W 080°03'713.3
2018-Feb-17 13:30N 25°46' W 080°08'0 0.0
2018-Feb-17 13:00N 25°46' W 080°08'3 5.3
2018-Feb-17 12:29N 25°47' W 080°05'1225.5
2018-Feb-17 12:00N 25°59' W 080°04'  

Dump ship's entire track history